Time;durP1;ratioP1;P1;durP2;ratioP2;P2;SDS_P1;SDS_P2;PMS_P1;PMS_P2;Temp;Humidity;BMP_temperature;BMP_pressure;BME280_temperature;BME280_humidity;BME280_pressure;Samples;Min_cycle;Max_cycle;Signal;HPM_P1;HPM_P2
2023/10/24 00:01:03;;;;;;;15.55;11.10;;;9.70;99.90;;;;;;5052557;28;20098;-80
2023/10/24 00:03:28;;;;;;;15.18;10.13;;;9.70;99.90;;;;;;5053216;28;20041;-80
2023/10/24 00:05:54;;;;;;;14.80;9.90;;;9.70;99.90;;;;;;5052798;28;20370;-80
2023/10/24 00:08:19;;;;;;;14.50;10.43;;;9.70;99.90;;;;;;5052810;28;20119;-79
2023/10/24 00:10:45;;;;;;;15.48;9.82;;;9.70;99.90;;;;;;5052479;28;20076;-79
2023/10/24 00:13:11;;;;;;;19.33;10.63;;;9.70;99.90;;;;;;5052638;28;20128;-80
2023/10/24 00:15:36;;;;;;;17.08;10.10;;;9.70;99.90;;;;;;5052144;28;20132;-80
2023/10/24 00:18:02;;;;;;;15.40;10.10;;;9.70;99.90;;;;;;5052890;28;20079;-80
2023/10/24 00:20:28;;;;;;;17.95;10.73;;;9.70;99.90;;;;;;5052175;28;20091;-80
2023/10/24 00:22:53;;;;;;;16.27;10.73;;;9.70;99.90;;;;;;5052908;28;20154;-79
2023/10/24 00:25:19;;;;;;;20.30;10.90;;;9.70;99.90;;;;;;5052184;28;20076;-80
2023/10/24 00:27:45;;;;;;;15.80;10.38;;;9.70;99.90;;;;;;5052446;28;20563;-81
2023/10/24 00:30:11;;;;;;;15.50;10.60;;;9.70;99.90;;;;;;5051983;28;20052;-80
2023/10/24 00:32:36;;;;;;;15.10;10.45;;;9.70;99.90;;;;;;5052314;28;20037;-80
2023/10/24 00:35:03;;;;;;;14.02;10.50;;;9.70;99.90;;;;;;5052999;28;20048;-81
2023/10/24 00:37:28;;;;;;;17.38;10.45;;;9.70;99.90;;;;;;5051402;28;20476;-79
2023/10/24 00:39:54;;;;;;;17.92;10.60;;;9.80;99.90;;;;;;5051043;28;20053;-80
2023/10/24 00:42:20;;;;;;;17.75;10.90;;;9.80;99.90;;;;;;5052025;28;20508;-80
2023/10/24 00:44:46;;;;;;;17.73;10.55;;;9.70;99.90;;;;;;5052296;28;20048;-78
2023/10/24 00:47:12;;;;;;;16.98;10.48;;;9.80;99.90;;;;;;5052154;28;20068;-80
2023/10/24 00:49:38;;;;;;;15.35;11.07;;;9.80;99.90;;;;;;5051430;28;20041;-80
2023/10/24 00:52:04;;;;;;;16.90;10.88;;;9.80;99.90;;;;;;5051471;28;20033;-81
2023/10/24 00:54:31;;;;;;;17.13;10.45;;;9.80;99.90;;;;;;5051528;28;20068;-80
2023/10/24 00:56:57;;;;;;;14.93;11.15;;;9.80;99.90;;;;;;5053392;28;20047;-81
2023/10/24 00:59:24;;;;;;;15.43;10.60;;;9.80;99.90;;;;;;5071205;28;20397;-82
2023/10/24 01:01:50;;;;;;;15.40;10.50;;;9.80;99.90;;;;;;5063063;28;20037;-83
2023/10/24 01:04:18;;;;;;;14.23;10.00;;;9.80;99.90;;;;;;5050922;28;20540;-81
2023/10/24 01:06:43;;;;;;;19.48;11.13;;;9.80;99.90;;;;;;5051295;28;20044;-82
2023/10/24 01:09:10;;;;;;;15.15;11.00;;;9.80;99.90;;;;;;5051581;28;20049;-82
2023/10/24 01:11:36;;;;;;;15.38;10.82;;;9.80;99.90;;;;;;5051242;28;20049;-80
2023/10/24 01:14:02;;;;;;;15.93;10.43;;;9.80;99.90;;;;;;5051204;28;20041;-81
2023/10/24 01:16:28;;;;;;;15.15;10.88;;;9.80;99.90;;;;;;5051810;28;20458;-81
2023/10/24 01:18:54;;;;;;;18.08;10.88;;;9.80;99.90;;;;;;5034936;28;20448;-81
2023/10/24 01:21:19;;;;;;;16.45;10.82;;;9.80;99.90;;;;;;5051402;28;20045;-80
2023/10/24 01:23:46;;;;;;;16.98;11.07;;;9.80;99.90;;;;;;5051424;28;20411;-81
2023/10/24 01:26:15;;;;;;;18.30;11.15;;;9.80;99.90;;;;;;5052347;28;20040;-81
2023/10/24 01:28:40;;;;;;;21.70;12.80;;;9.80;99.90;;;;;;5055326;28;20036;-80
2023/10/24 01:31:06;;;;;;;17.17;11.63;;;9.80;99.90;;;;;;5074549;28;20048;-81
2023/10/24 01:33:31;;;;;;;18.85;12.10;;;9.80;99.90;;;;;;5048654;28;20127;-80
2023/10/24 01:35:57;;;;;;;19.00;12.88;;;9.80;99.90;;;;;;5055736;28;20100;-79
2023/10/24 01:38:22;;;;;;;21.63;13.38;;;9.80;99.90;;;;;;5055543;28;20424;-81
2023/10/24 01:40:48;;;;;;;21.27;14.00;;;9.80;99.90;;;;;;5047172;28;20039;-80
2023/10/24 01:43:13;;;;;;;20.38;14.50;;;9.80;99.90;;;;;;5075439;28;20041;-81
2023/10/24 01:45:39;;;;;;;23.23;14.50;;;9.80;99.90;;;;;;5075424;28;20517;-81
2023/10/24 01:48:04;;;;;;;23.30;14.93;;;9.80;99.90;;;;;;5074626;28;20040;-79
2023/10/24 01:50:30;;;;;;;21.75;15.00;;;9.80;99.90;;;;;;5057143;28;20069;-80
2023/10/24 01:52:58;;;;;;;21.77;14.48;;;9.80;99.90;;;;;;5055228;28;20040;-79
2023/10/24 01:55:23;;;;;;;22.90;14.38;;;9.80;99.90;;;;;;5055025;28;20048;-78
2023/10/24 01:57:49;;;;;;;22.15;14.65;;;9.80;99.90;;;;;;5054208;28;20041;-79
2023/10/24 02:00:15;;;;;;;22.20;15.30;;;9.80;99.90;;;;;;5054244;28;20048;-80
2023/10/24 02:02:41;;;;;;;20.45;15.00;;;9.80;99.90;;;;;;5054784;28;20558;-81
2023/10/24 02:05:07;;;;;;;22.80;15.82;;;9.80;99.90;;;;;;5054275;28;20041;-79
2023/10/24 02:07:32;;;;;;;23.90;16.48;;;9.80;99.90;;;;;;5054955;28;20045;-79
2023/10/24 02:09:58;;;;;;;25.67;16.83;;;9.80;99.90;;;;;;5054178;28;20040;-80
2023/10/24 02:12:24;;;;;;;24.33;16.90;;;9.80;99.90;;;;;;5054638;28;20511;-79
2023/10/24 02:14:51;;;;;;;23.67;17.30;;;9.80;99.90;;;;;;5054934;28;20435;-80
2023/10/24 02:17:17;;;;;;;24.70;17.25;;;9.80;99.90;;;;;;5037917;28;20106;-80
2023/10/24 02:19:42;;;;;;;22.38;16.83;;;9.80;99.90;;;;;;5054191;28;20425;-80
2023/10/24 02:22:08;;;;;;;21.35;15.65;;;9.80;99.90;;;;;;5037562;28;20500;-79
2023/10/24 02:24:33;;;;;;;21.00;15.30;;;9.80;99.90;;;;;;5054014;28;20040;-82
2023/10/24 02:26:59;;;;;;;21.02;15.13;;;9.80;99.90;;;;;;5054147;28;20041;-79
2023/10/24 02:29:24;;;;;;;19.45;13.85;;;9.90;99.90;;;;;;5053850;28;20043;-79
2023/10/24 02:31:50;;;;;;;19.65;14.23;;;9.90;99.90;;;;;;5054692;28;20087;-79
2023/10/24 02:34:15;;;;;;;20.40;13.77;;;9.90;99.90;;;;;;5053613;28;20041;-80
2023/10/24 02:36:41;;;;;;;18.35;13.50;;;9.90;99.90;;;;;;5054506;28;20029;-79
2023/10/24 02:39:07;;;;;;;17.10;12.95;;;9.90;99.90;;;;;;5053382;28;20260;-79
2023/10/24 02:41:32;;;;;;;20.38;12.27;;;9.90;99.90;;;;;;5037207;28;20073;-81
2023/10/24 02:43:58;;;;;;;15.73;11.88;;;9.90;99.90;;;;;;5054510;28;20033;-80
2023/10/24 02:46:24;;;;;;;16.77;12.07;;;9.90;99.90;;;;;;5054042;28;20040;-79
2023/10/24 02:48:49;;;;;;;17.35;11.73;;;9.90;99.90;;;;;;5053375;28;20041;-80
2023/10/24 02:51:15;;;;;;;14.05;10.13;;;10.00;99.90;;;;;;5053747;28;20044;-79
2023/10/24 02:53:40;;;;;;;16.80;10.90;;;10.00;99.90;;;;;;5055250;28;20037;-79
2023/10/24 02:56:06;;;;;;;16.95;10.63;;;10.00;99.90;;;;;;5054503;28;20052;-79
2023/10/24 02:58:31;;;;;;;13.65;10.07;;;10.00;99.90;;;;;;5053433;28;20112;-80
2023/10/24 03:01:03;;;;;;;15.65;10.30;;;10.00;99.90;;;;;;5053056;28;20456;-80
2023/10/24 03:03:29;;;;;;;16.40;10.60;;;10.00;99.90;;;;;;5053168;28;20045;-79
2023/10/24 03:05:55;;;;;;;15.23;10.15;;;10.00;99.90;;;;;;5053709;28;20055;-79
2023/10/24 03:08:20;;;;;;;13.85;10.13;;;10.00;99.90;;;;;;5053594;28;20045;-80
2023/10/24 03:10:46;;;;;;;14.63;9.73;;;10.00;99.90;;;;;;5053319;28;20049;-80
2023/10/24 03:13:11;;;;;;;16.85;10.10;;;10.10;99.90;;;;;;5053517;28;20047;-81
2023/10/24 03:15:39;;;;;;;14.25;10.18;;;10.10;99.90;;;;;;5053031;28;20040;-80
2023/10/24 03:18:04;;;;;;;15.15;9.93;;;10.10;99.90;;;;;;5036365;28;20043;-81
2023/10/24 03:20:30;;;;;;;14.15;9.93;;;10.10;99.90;;;;;;5052512;28;20045;-79
2023/10/24 03:22:56;;;;;;;13.88;9.55;;;10.10;99.90;;;;;;5053379;28;20045;-81
2023/10/24 03:25:24;;;;;;;17.30;9.93;;;10.10;99.90;;;;;;5053310;28;20211;-79
2023/10/24 03:27:54;;;;;;;13.70;9.75;;;10.10;99.90;;;;;;5055359;28;20119;-79
2023/10/24 03:30:22;;;;;;;14.05;9.15;;;10.10;99.90;;;;;;5072168;28;20504;-79
2023/10/24 03:32:48;;;;;;;15.85;9.85;;;10.20;99.90;;;;;;5073087;28;20037;-80
2023/10/24 03:35:14;;;;;;;12.50;9.40;;;10.20;99.90;;;;;;5072717;28;20041;-79
2023/10/24 03:37:40;;;;;;;17.33;10.13;;;10.20;99.90;;;;;;5053459;28;20051;-81
2023/10/24 03:40:08;;;;;;;13.70;10.27;;;10.20;99.90;;;;;;5053190;28;20131;-80
2023/10/24 03:42:33;;;;;;;15.40;10.05;;;10.20;99.90;;;;;;5052657;28;20048;-79
2023/10/24 03:44:59;;;;;;;17.17;10.88;;;10.20;99.90;;;;;;5052658;28;20497;-79
2023/10/24 03:47:24;;;;;;;15.45;10.20;;;10.30;99.90;;;;;;5052992;28;20049;-79
2023/10/24 03:49:50;;;;;;;18.40;10.93;;;10.30;99.90;;;;;;5051730;28;20068;-81
2023/10/24 03:52:15;;;;;;;17.70;11.73;;;10.30;99.90;;;;;;5053133;28;20052;-79
2023/10/24 03:54:41;;;;;;;16.95;11.32;;;10.30;99.90;;;;;;5068338;28;20517;-81
2023/10/24 03:57:06;;;;;;;15.88;11.18;;;10.30;99.90;;;;;;5067136;28;20025;-80
2023/10/24 03:59:32;;;;;;;16.90;11.68;;;10.30;99.90;;;;;;5065865;28;20125;-80
2023/10/24 04:01:57;;;;;;;16.17;11.02;;;10.30;99.90;;;;;;5071688;28;20066;-80
2023/10/24 04:04:23;;;;;;;18.45;11.57;;;10.30;99.90;;;;;;5052986;28;20404;-80
2023/10/24 04:06:48;;;;;;;18.17;11.18;;;10.40;99.90;;;;;;5051930;28;20040;-79
2023/10/24 04:09:14;;;;;;;15.60;11.43;;;10.40;99.90;;;;;;5051672;28;20063;-79
2023/10/24 04:11:39;;;;;;;16.27;11.43;;;10.40;99.90;;;;;;5051833;28;20033;-80
2023/10/24 04:14:06;;;;;;;14.35;10.63;;;10.40;99.90;;;;;;5051795;28;20091;-80
2023/10/24 04:16:35;;;;;;;15.77;11.35;;;10.40;99.90;;;;;;5051950;28;20397;-79
2023/10/24 04:19:00;;;;;;;18.35;11.73;;;10.40;99.90;;;;;;5052107;28;20123;-80
2023/10/24 04:21:26;;;;;;;17.13;10.75;;;10.40;99.90;;;;;;5034709;28;20121;-79
2023/10/24 04:23:51;;;;;;;15.98;10.80;;;10.40;99.90;;;;;;5051575;28;20041;-81
2023/10/24 04:26:17;;;;;;;15.02;11.27;;;10.40;99.90;;;;;;5052076;28;20045;-80
2023/10/24 04:28:43;;;;;;;18.27;11.55;;;10.40;99.90;;;;;;5051573;28;20136;-79
2023/10/24 04:31:08;;;;;;;16.17;10.95;;;10.50;99.90;;;;;;5051708;28;20409;-79
2023/10/24 04:33:34;;;;;;;16.42;11.57;;;10.50;99.90;;;;;;5051681;28;20120;-80
2023/10/24 04:35:59;;;;;;;18.80;12.02;;;10.50;99.90;;;;;;5051305;28;20156;-81
2023/10/24 04:38:25;;;;;;;17.08;12.25;;;10.50;99.90;;;;;;5051542;28;20507;-80
2023/10/24 04:40:51;;;;;;;19.55;12.63;;;10.50;99.90;;;;;;5050511;28;20120;-80
2023/10/24 04:43:17;;;;;;;18.48;12.35;;;10.50;99.90;;;;;;5033990;28;20131;-79
2023/10/24 04:45:43;;;;;;;17.67;12.48;;;10.50;99.90;;;;;;5050647;28;20045;-81
2023/10/24 04:48:09;;;;;;;18.48;12.30;;;10.50;99.90;;;;;;5034784;28;20059;-80
2023/10/24 04:50:41;;;;;;;16.08;11.95;;;10.50;99.90;;;;;;5052558;28;20048;-80
2023/10/24 04:53:06;;;;;;;17.80;12.27;;;10.50;99.90;;;;;;5052225;28;20404;-79
2023/10/24 04:55:32;;;;;;;18.85;12.98;;;10.60;99.90;;;;;;5050443;28;20045;-79
2023/10/24 04:57:59;;;;;;;18.42;12.93;;;10.60;99.90;;;;;;5050616;28;20109;-79
2023/10/24 05:00:25;;;;;;;17.23;12.88;;;10.60;99.90;;;;;;5051820;28;20041;-80
2023/10/24 05:02:52;;;;;;;18.63;13.32;;;10.60;99.90;;;;;;5050572;28;20128;-80
2023/10/24 05:05:17;;;;;;;17.77;13.05;;;10.70;99.90;;;;;;5051111;28;20044;-79
2023/10/24 05:07:43;;;;;;;22.33;14.77;;;10.70;99.90;;;;;;5051401;28;20056;-80
2023/10/24 05:10:10;;;;;;;18.88;13.73;;;10.70;99.90;;;;;;5050922;28;20128;-80
2023/10/24 05:12:36;;;;;;;20.00;13.63;;;10.70;99.90;;;;;;5034876;28;20036;-80
2023/10/24 05:15:02;;;;;;;20.83;14.25;;;10.70;99.90;;;;;;5051841;28;20102;-80
2023/10/24 05:17:30;;;;;;;21.65;14.77;;;10.70;99.90;;;;;;5051334;28;20043;-80
2023/10/24 05:19:59;;;;;;;20.25;14.80;;;10.70;99.90;;;;;;5051907;28;20117;-81
2023/10/24 05:22:25;;;;;;;20.73;14.57;;;10.80;99.90;;;;;;5051350;28;20045;-81
2023/10/24 05:24:50;;;;;;;23.00;15.27;;;10.80;99.90;;;;;;5067497;28;20068;-80
2023/10/24 05:27:16;;;;;;;24.58;16.05;;;10.80;99.90;;;;;;5051160;28;20037;-81
2023/10/24 05:29:42;;;;;;;21.10;15.02;;;10.80;99.90;;;;;;5051862;28;20069;-81
2023/10/24 05:32:08;;;;;;;23.55;15.38;;;10.80;99.90;;;;;;5052544;28;20249;-80
2023/10/24 05:34:34;;;;;;;19.45;14.73;;;10.80;99.90;;;;;;5051595;28;20405;-81
2023/10/24 05:36:59;;;;;;;22.10;15.00;;;10.80;99.90;;;;;;5051103;28;20044;-80
2023/10/24 05:39:26;;;;;;;21.73;14.93;;;10.80;99.90;;;;;;5067958;28;20074;-81
2023/10/24 05:41:52;;;;;;;20.30;14.85;;;10.80;99.90;;;;;;5071522;28;20116;-81
2023/10/24 05:44:17;;;;;;;19.10;14.20;;;10.80;99.90;;;;;;5051994;28;20136;-81
2023/10/24 05:46:43;;;;;;;22.58;14.68;;;10.80;99.90;;;;;;5051561;28;20048;-80
2023/10/24 05:49:09;;;;;;;20.15;13.80;;;10.80;99.90;;;;;;5050863;28;20043;-80
2023/10/24 05:51:34;;;;;;;20.67;14.60;;;10.80;99.90;;;;;;5051473;28;20515;-82
2023/10/24 05:54:00;;;;;;;19.10;14.43;;;10.80;99.90;;;;;;5051846;28;20107;-81
2023/10/24 05:56:26;;;;;;;18.95;14.00;;;10.80;99.90;;;;;;5051330;28;20099;-81
2023/10/24 05:58:52;;;;;;;20.65;14.35;;;10.80;99.90;;;;;;5051318;28;20523;-81
2023/10/24 06:01:18;;;;;;;19.45;14.35;;;10.80;99.90;;;;;;5051639;28;20053;-81
2023/10/24 06:03:43;;;;;;;19.35;14.82;;;10.80;99.90;;;;;;5051353;28;20067;-81
2023/10/24 06:06:09;;;;;;;19.45;14.93;;;10.80;99.90;;;;;;5034838;28;20476;-81
2023/10/24 06:08:35;;;;;;;20.85;14.70;;;10.80;99.90;;;;;;5051584;28;20041;-80
2023/10/24 06:11:02;;;;;;;19.60;13.75;;;10.80;99.90;;;;;;5051752;28;20045;-81
2023/10/24 06:13:28;;;;;;;17.52;13.75;;;10.80;99.90;;;;;;5052695;28;20080;-81
2023/10/24 06:15:54;;;;;;;18.05;13.05;;;10.80;99.90;;;;;;5074203;28;20040;-82
2023/10/24 06:18:20;;;;;;;19.98;13.25;;;10.80;99.90;;;;;;5074858;28;20060;-82
2023/10/24 06:20:47;;;;;;;16.95;12.88;;;10.80;99.90;;;;;;5075062;28;20381;-81
2023/10/24 06:23:13;;;;;;;18.55;13.02;;;10.80;99.90;;;;;;5074851;28;20041;-81
2023/10/24 06:25:41;;;;;;;15.80;12.32;;;10.80;99.90;;;;;;5075315;28;20106;-81
2023/10/24 06:28:08;;;;;;;17.08;11.38;;;10.90;99.90;;;;;;5058807;28;20500;-80
2023/10/24 06:30:35;;;;;;;16.75;12.55;;;10.80;99.90;;;;;;5072903;28;20051;-83
2023/10/24 06:33:01;;;;;;;21.17;12.57;;;10.80;99.90;;;;;;5055309;28;20400;-82
2023/10/24 06:35:26;;;;;;;17.52;12.75;;;10.90;99.90;;;;;;5055071;28;20037;-81
2023/10/24 06:37:52;;;;;;;16.02;12.80;;;10.90;99.90;;;;;;5054510;28;20037;-82
2023/10/24 06:40:18;;;;;;;17.80;11.60;;;10.80;99.90;;;;;;5054087;28;20170;-81
2023/10/24 06:42:44;;;;;;;16.08;12.00;;;10.90;99.90;;;;;;5054465;28;20128;-81
2023/10/24 06:45:11;;;;;;;17.35;11.30;;;10.90;99.90;;;;;;5054908;28;20416;-83
2023/10/24 06:47:36;;;;;;;16.45;11.10;;;10.90;99.90;;;;;;5054542;28;20137;-82
2023/10/24 06:50:02;;;;;;;15.10;11.85;;;10.90;99.90;;;;;;5037224;28;20072;-82
2023/10/24 06:52:30;;;;;;;15.32;11.32;;;10.90;99.90;;;;;;5056221;28;20057;-81
2023/10/24 06:54:56;;;;;;;14.88;11.73;;;10.90;99.90;;;;;;5038833;28;20033;-82
2023/10/24 06:57:22;;;;;;;15.70;10.88;;;10.90;99.90;;;;;;5056991;28;20049;-79
2023/10/24 06:59:47;;;;;;;15.88;10.50;;;10.90;99.90;;;;;;5054156;28;20037;-81
2023/10/24 07:02:13;;;;;;;14.23;10.35;;;10.90;99.90;;;;;;5054549;28;20140;-82
2023/10/24 07:04:39;;;;;;;13.27;10.15;;;10.90;99.90;;;;;;5037315;28;20575;-81
2023/10/24 07:07:04;;;;;;;13.77;9.77;;;10.90;99.90;;;;;;5053905;28;20408;-81
2023/10/24 07:09:30;;;;;;;12.85;9.50;;;10.90;99.90;;;;;;5054064;28;20052;-81
2023/10/24 07:11:55;;;;;;;13.80;9.70;;;10.90;99.90;;;;;;5054163;28;20040;-81
2023/10/24 07:14:21;;;;;;;13.55;9.23;;;10.90;99.90;;;;;;5053691;28;20041;-81
2023/10/24 07:16:46;;;;;;;13.38;9.63;;;10.90;99.90;;;;;;5052683;28;20029;-81
2023/10/24 07:19:12;;;;;;;13.55;9.80;;;10.90;99.90;;;;;;5053358;28;20051;-81
2023/10/24 07:21:38;;;;;;;12.68;10.40;;;10.90;99.90;;;;;;5036610;28;20126;-80
2023/10/24 07:24:03;;;;;;;13.75;10.05;;;10.90;99.90;;;;;;5054456;28;20512;-81
2023/10/24 07:26:30;;;;;;;15.60;9.90;;;10.80;99.90;;;;;;5073954;28;20047;-82
2023/10/24 07:28:55;;;;;;;16.75;10.60;;;10.80;99.90;;;;;;5066147;28;20041;-81
2023/10/24 07:31:21;;;;;;;12.35;9.60;;;10.80;99.90;;;;;;5052489;28;20048;-82
2023/10/24 07:33:46;;;;;;;11.52;9.10;;;10.80;99.90;;;;;;5036450;28;20041;-83
2023/10/24 07:36:12;;;;;;;14.23;10.65;;;10.80;99.90;;;;;;5052537;28;20459;-82
2023/10/24 07:38:38;;;;;;;14.90;10.43;;;10.80;99.90;;;;;;5052819;28;20112;-82
2023/10/24 07:41:04;;;;;;;14.85;10.63;;;10.80;99.90;;;;;;5053128;28;20106;-83
2023/10/24 07:43:30;;;;;;;13.55;10.20;;;10.90;99.90;;;;;;5052595;28;20049;-83
2023/10/24 07:45:55;;;;;;;15.10;9.98;;;10.80;99.90;;;;;;5052589;28;20075;-81
2023/10/24 07:48:23;;;;;;;14.50;10.32;;;10.90;99.90;;;;;;5053713;28;20040;-81
2023/10/24 07:50:53;;;;;;;14.18;10.48;;;10.90;99.90;;;;;;5052109;28;20408;-81
2023/10/24 07:53:20;;;;;;;14.43;10.40;;;10.90;99.90;;;;;;5052221;28;20120;-81
2023/10/24 07:55:46;;;;;;;12.88;10.40;;;10.90;99.90;;;;;;5036245;28;20048;-81
2023/10/24 07:58:11;;;;;;;12.85;9.60;;;10.90;99.90;;;;;;5051953;28;20400;-82
2023/10/24 08:00:37;;;;;;;15.02;10.25;;;11.00;99.90;;;;;;5051987;28;20565;-82
2023/10/24 08:03:02;;;;;;;14.35;10.32;;;10.90;99.90;;;;;;5052637;28;20122;-80
2023/10/24 08:05:28;;;;;;;14.32;10.20;;;11.00;99.90;;;;;;5052365;28;20171;-81
2023/10/24 08:07:53;;;;;;;14.98;10.82;;;11.00;99.90;;;;;;5052431;28;20171;-81
2023/10/24 08:10:19;;;;;;;14.27;10.52;;;11.00;99.90;;;;;;5052425;28;20512;-80
2023/10/24 08:12:44;;;;;;;15.32;10.02;;;11.00;99.90;;;;;;5058921;28;20329;-82
2023/10/24 08:15:10;;;;;;;15.65;9.95;;;11.00;99.90;;;;;;5071633;28;20043;-82
2023/10/24 08:17:35;;;;;;;14.43;10.38;;;11.00;99.90;;;;;;5054912;28;20499;-80
2023/10/24 08:20:03;;;;;;;14.98;10.15;;;11.00;99.90;;;;;;5051623;28;20095;-81
2023/10/24 08:22:28;;;;;;;15.10;10.02;;;11.00;99.90;;;;;;5051973;28;20041;-81
2023/10/24 08:24:53;;;;;;;14.13;9.82;;;11.00;99.90;;;;;;5051679;28;20135;-82
2023/10/24 08:27:19;;;;;;;15.57;10.73;;;11.00;99.90;;;;;;5071114;28;20048;-82
2023/10/24 08:29:45;;;;;;;15.88;10.43;;;11.00;99.90;;;;;;5071139;28;20135;-81
2023/10/24 08:32:11;;;;;;;13.40;10.00;;;11.00;99.90;;;;;;5037305;28;20040;-81
2023/10/24 08:34:37;;;;;;;14.75;9.98;;;10.90;99.90;;;;;;5054044;28;20041;-81
2023/10/24 08:37:05;;;;;;;15.90;10.25;;;11.00;99.90;;;;;;5050974;28;20044;-80
2023/10/24 08:39:31;;;;;;;13.63;9.93;;;11.00;99.90;;;;;;5052083;28;20597;-81
2023/10/24 08:41:57;;;;;;;16.98;10.43;;;11.00;99.90;;;;;;5051769;28;20036;-80
2023/10/24 08:44:24;;;;;;;15.32;9.85;;;11.00;99.90;;;;;;5052839;28;20055;-80
2023/10/24 08:46:50;;;;;;;15.68;10.43;;;11.00;99.90;;;;;;5051680;28;20037;-80
2023/10/24 08:49:18;;;;;;;16.35;10.63;;;11.00;99.90;;;;;;5052306;28;20044;-81
2023/10/24 08:51:45;;;;;;;15.98;10.45;;;11.00;99.90;;;;;;5052197;28;20443;-80
2023/10/24 08:54:11;;;;;;;15.52;9.85;;;11.00;99.90;;;;;;5052040;28;20519;-81
2023/10/24 08:56:39;;;;;;;15.95;10.50;;;11.00;99.90;;;;;;5051696;28;20080;-80
2023/10/24 08:59:07;;;;;;;15.38;10.40;;;11.00;99.90;;;;;;5051796;28;20033;-80
2023/10/24 09:01:35;;;;;;;16.08;10.45;;;11.00;99.90;;;;;;5052424;28;20040;-81
2023/10/24 09:04:02;;;;;;;14.50;10.00;;;11.10;99.90;;;;;;5051796;28;20488;-81
2023/10/24 09:06:28;;;;;;;15.73;10.40;;;11.10;99.90;;;;;;5036360;28;20175;-80
2023/10/24 09:08:53;;;;;;;17.30;10.32;;;11.20;99.90;;;;;;5035876;28;20037;-82
2023/10/24 09:11:19;;;;;;;18.00;11.10;;;11.30;99.90;;;;;;5052061;28;20044;-81
2023/10/24 09:13:45;;;;;;;16.00;11.00;;;11.30;99.90;;;;;;5053490;28;20404;-80
2023/10/24 09:16:12;;;;;;;16.75;11.18;;;11.30;99.90;;;;;;5072305;28;20048;-80
2023/10/24 09:18:38;;;;;;;16.73;11.07;;;11.30;99.90;;;;;;5059802;28;20044;-81
2023/10/24 09:21:06;;;;;;;16.33;10.60;;;11.20;99.90;;;;;;5051415;28;20336;-79
2023/10/24 09:23:33;;;;;;;15.23;10.77;;;11.20;99.90;;;;;;5052206;28;20123;-80
2023/10/24 09:26:03;;;;;;;19.90;11.57;;;11.20;99.90;;;;;;5034562;28;20052;-80
2023/10/24 09:28:29;;;;;;;16.50;10.90;;;11.20;99.90;;;;;;5051461;28;20048;-81
2023/10/24 09:30:58;;;;;;;15.52;11.38;;;11.20;99.90;;;;;;5051495;28;20076;-80
2023/10/24 09:33:25;;;;;;;16.88;11.35;;;11.20;99.90;;;;;;5051905;28;20432;-80
2023/10/24 09:35:50;;;;;;;18.35;11.50;;;11.20;99.90;;;;;;5052381;28;20195;-79
2023/10/24 09:38:21;;;;;;;16.02;11.50;;;11.20;99.90;;;;;;5055867;28;20118;-80
2023/10/24 09:40:47;;;;;;;15.23;10.32;;;11.20;99.90;;;;;;5065418;28;20040;-80
2023/10/24 09:43:21;;;;;;;16.20;11.35;;;11.20;99.90;;;;;;5051745;28;20048;-80
2023/10/24 09:45:49;;;;;;;16.92;11.48;;;11.10;99.90;;;;;;5052836;28;20083;-81
2023/10/24 09:48:16;;;;;;;16.75;10.65;;;11.10;99.90;;;;;;5036586;28;20177;-81
2023/10/24 09:50:42;;;;;;;15.48;10.52;;;11.10;99.90;;;;;;5057799;28;20041;-80
2023/10/24 09:53:09;;;;;;;15.38;10.98;;;11.10;99.90;;;;;;5039655;28;20044;-80
2023/10/24 09:55:35;;;;;;;16.13;11.02;;;11.10;99.90;;;;;;5055438;28;20040;-80
2023/10/24 09:58:04;;;;;;;14.95;10.38;;;11.10;99.90;;;;;;5056328;28;20119;-80
2023/10/24 10:00:31;;;;;;;16.67;11.00;;;11.10;99.90;;;;;;5055943;28;20033;-80
2023/10/24 10:02:58;;;;;;;17.10;10.73;;;11.10;99.90;;;;;;5055268;28;20040;-80
2023/10/24 10:05:27;;;;;;;16.10;11.68;;;11.10;99.90;;;;;;5055383;28;20045;-82
2023/10/24 10:07:54;;;;;;;16.55;10.68;;;11.10;99.90;;;;;;5055167;28;20040;-81
2023/10/24 10:10:22;;;;;;;16.58;11.52;;;11.10;99.90;;;;;;5038530;28;20085;-80
2023/10/24 10:12:50;;;;;;;16.15;10.93;;;11.10;99.90;;;;;;5055647;28;20569;-80
2023/10/24 10:15:42;;;;;;;16.48;10.43;;;11.20;99.90;;;;;;5057071;28;20519;-80
2023/10/24 10:18:11;;;;;;;15.27;10.38;;;11.20;99.90;;;;;;5055060;28;20555;-80
2023/10/24 10:20:48;;;;;;;16.48;10.45;;;11.20;99.90;;;;;;5056303;28;20040;-80
2023/10/24 10:23:49;;;;;;;15.75;10.55;;;11.20;99.90;;;;;;5056686;28;20048;-80
2023/10/24 10:26:29;;;;;;;16.67;10.40;;;11.10;99.90;;;;;;5056769;28;20045;-81
2023/10/24 10:29:07;;;;;;;14.38;10.73;;;11.10;99.90;;;;;;5039306;28;20053;-81
2023/10/24 10:31:57;;;;;;;14.43;10.77;;;11.10;99.90;;;;;;5055744;28;20099;-80
2023/10/24 10:34:35;;;;;;;13.93;10.20;;;11.10;99.90;;;;;;5055288;28;20037;-80
2023/10/24 10:37:01;;;;;;;16.00;10.10;;;11.10;99.90;;;;;;5039103;28;20033;-80
2023/10/24 10:39:27;;;;;;;12.35;9.60;;;11.20;99.90;;;;;;5037729;28;20088;-80
2023/10/24 10:41:52;;;;;;;14.05;9.95;;;11.20;99.90;;;;;;5054309;28;20037;-80
2023/10/24 10:44:41;;;;;;;14.18;9.98;;;11.20;99.90;;;;;;5056456;28;20048;-80
2023/10/24 10:47:11;;;;;;;15.65;10.65;;;11.20;99.90;;;;;;5065970;28;20044;-80
2023/10/24 10:49:42;;;;;;;13.93;10.02;;;11.30;99.90;;;;;;5073538;28;20068;-80
2023/10/24 10:52:30;;;;;;;14.65;10.60;;;11.30;99.90;;;;;;5071801;28;20029;-80
2023/10/24 10:55:03;;;;;;;13.63;10.38;;;11.40;99.90;;;;;;5054229;28;20045;-79
2023/10/24 10:57:30;;;;;;;13.50;10.48;;;11.50;99.90;;;;;;5053903;28;20048;-80
2023/10/24 11:00:03;;;;;;;13.32;10.18;;;11.60;99.90;;;;;;5053117;28;20445;-80
2023/10/24 11:03:01;;;;;;;14.82;10.30;;;11.70;99.90;;;;;;5053946;28;20037;-79
2023/10/24 11:05:43;;;;;;;13.82;10.00;;;11.80;99.90;;;;;;5053806;28;20051;-80
2023/10/24 11:08:17;;;;;;;15.65;10.50;;;11.80;99.90;;;;;;5052912;28;20563;-80
2023/10/24 11:10:51;;;;;;;13.82;10.48;;;11.80;99.90;;;;;;5054199;28;20056;-80
2023/10/24 11:13:40;;;;;;;13.70;9.52;;;11.80;99.90;;;;;;5054645;28;20033;-80
2023/10/24 11:16:10;;;;;;;12.98;9.85;;;11.80;99.90;;;;;;5054287;28;20040;-80
2023/10/24 11:18:37;;;;;;;13.93;9.75;;;11.70;99.90;;;;;;5054230;28;20510;-80
2023/10/24 11:21:05;;;;;;;13.32;9.95;;;11.80;99.90;;;;;;5052740;28;20041;-80
2023/10/24 11:23:32;;;;;;;14.02;9.95;;;11.80;99.90;;;;;;5053484;28;20128;-81
2023/10/24 11:25:59;;;;;;;13.05;9.55;;;11.80;99.90;;;;;;5037043;28;20037;-80
2023/10/24 11:28:26;;;;;;;14.82;10.63;;;11.80;99.90;;;;;;5053164;28;20090;-80
2023/10/24 11:30:52;;;;;;;13.70;10.57;;;11.80;99.90;;;;;;5053332;28;20040;-80
2023/10/24 11:33:18;;;;;;;15.00;11.25;;;11.80;99.90;;;;;;5052728;28;20036;-80
2023/10/24 11:35:44;;;;;;;12.73;9.52;;;11.80;99.90;;;;;;5052994;28;20523;-80
2023/10/24 11:38:10;;;;;;;14.30;10.82;;;11.90;99.90;;;;;;5053494;28;20044;-80
2023/10/24 11:40:36;;;;;;;13.40;10.38;;;11.90;99.90;;;;;;5053121;28;20045;-80
2023/10/24 11:43:08;;;;;;;13.52;9.55;;;11.90;99.90;;;;;;5052949;28;20072;-80
2023/10/24 11:45:37;;;;;;;14.73;10.10;;;12.00;99.90;;;;;;5052931;28;20121;-80
2023/10/24 11:48:04;;;;;;;14.23;10.07;;;12.10;99.90;;;;;;5035940;28;20045;-80
2023/10/24 11:50:41;;;;;;;12.48;9.98;;;12.10;99.90;;;;;;5052608;28;20433;-82
2023/10/24 11:53:07;;;;;;;13.60;9.88;;;12.20;99.90;;;;;;5052621;28;20041;-79
2023/10/24 11:55:33;;;;;;;14.55;10.98;;;12.20;99.90;;;;;;5055500;28;20515;-80
2023/10/24 11:57:59;;;;;;;14.32;11.48;;;12.20;99.90;;;;;;5053470;28;20083;-80
2023/10/24 12:00:30;;;;;;;15.63;10.80;;;12.20;99.90;;;;;;5052598;28;20053;-81
2023/10/24 12:03:02;;;;;;;14.13;10.13;;;12.20;99.90;;;;;;5053701;28;20037;-80
2023/10/24 12:05:27;;;;;;;12.32;10.02;;;12.20;99.90;;;;;;5054342;28;20044;-80
2023/10/24 12:07:55;;;;;;;12.23;9.88;;;12.10;99.90;;;;;;5055802;28;20076;-80
2023/10/24 12:10:21;;;;;;;12.57;10.55;;;12.10;99.90;;;;;;5054389;28;20040;-80
2023/10/24 12:12:46;;;;;;;12.57;9.40;;;12.00;99.90;;;;;;5054959;28;20381;-80
2023/10/24 12:15:14;;;;;;;13.02;10.10;;;12.00;99.90;;;;;;5055081;28;20544;-80
2023/10/24 12:17:43;;;;;;;12.30;9.57;;;12.00;99.90;;;;;;5053410;28;20048;-80
2023/10/24 12:20:09;;;;;;;13.38;10.25;;;12.00;99.90;;;;;;5036532;28;20043;-79
2023/10/24 12:22:35;;;;;;;12.70;9.35;;;12.00;99.90;;;;;;5055085;28;20044;-80
2023/10/24 12:25:00;;;;;;;14.93;9.35;;;12.00;99.90;;;;;;5055086;28;20045;-80
2023/10/24 12:27:26;;;;;;;14.75;10.02;;;11.90;99.90;;;;;;5053126;28;20036;-80
2023/10/24 12:29:51;;;;;;;14.18;10.25;;;11.90;99.90;;;;;;5054571;28;20045;-81